sensor_id;sensor_type;location;lat;lon;timestamp;P1;durP1;ratioP1;P2;durP2;ratioP2
15192;SDS011;7697;51.630;7.484;2023-04-25T00:02:13;8.57;;;4.57;;
15192;SDS011;7697;51.630;7.484;2023-04-25T00:07:16;7.27;;;4.70;;
15192;SDS011;7697;51.630;7.484;2023-04-25T00:12:18;8.83;;;5.23;;
15192;SDS011;7697;51.630;7.484;2023-04-25T00:17:21;8.53;;;4.83;;
15192;SDS011;7697;51.630;7.484;2023-04-25T00:22:25;7.90;;;5.03;;
15192;SDS011;7697;51.630;7.484;2023-04-25T00:27:27;9.73;;;5.37;;
15192;SDS011;7697;51.630;7.484;2023-04-25T00:32:29;7.47;;;4.77;;
15192;SDS011;7697;51.630;7.484;2023-04-25T00:37:32;8.03;;;4.90;;
15192;SDS011;7697;51.630;7.484;2023-04-25T00:42:34;6.80;;;4.97;;
15192;SDS011;7697;51.630;7.484;2023-04-25T00:47:37;8.70;;;5.17;;
15192;SDS011;7697;51.630;7.484;2023-04-25T00:52:42;6.57;;;4.60;;
15192;SDS011;7697;51.630;7.484;2023-04-25T00:57:45;5.87;;;4.60;;
15192;SDS011;7697;51.630;7.484;2023-04-25T01:02:47;7.40;;;4.30;;
15192;SDS011;7697;51.630;7.484;2023-04-25T01:07:51;5.67;;;4.30;;
15192;SDS011;7697;51.630;7.484;2023-04-25T01:12:52;6.80;;;4.90;;
15192;SDS011;7697;51.630;7.484;2023-04-25T01:17:54;7.60;;;4.50;;
15192;SDS011;7697;51.630;7.484;2023-04-25T01:22:58;6.73;;;4.60;;
15192;SDS011;7697;51.630;7.484;2023-04-25T01:28:00;6.30;;;4.47;;
15192;SDS011;7697;51.630;7.484;2023-04-25T01:33:02;8.20;;;4.43;;
15192;SDS011;7697;51.630;7.484;2023-04-25T01:38:07;5.97;;;3.97;;
15192;SDS011;7697;51.630;7.484;2023-04-25T01:43:09;6.40;;;4.20;;
15192;SDS011;7697;51.630;7.484;2023-04-25T01:48:12;5.47;;;3.80;;
15192;SDS011;7697;51.630;7.484;2023-04-25T01:53:16;5.57;;;3.93;;
15192;SDS011;7697;51.630;7.484;2023-04-25T01:58:18;5.13;;;3.70;;
15192;SDS011;7697;51.630;7.484;2023-04-25T02:03:20;5.73;;;3.33;;
15192;SDS011;7697;51.630;7.484;2023-04-25T02:08:23;4.43;;;3.40;;
15192;SDS011;7697;51.630;7.484;2023-04-25T02:13:26;7.43;;;3.50;;
15192;SDS011;7697;51.630;7.484;2023-04-25T02:18:27;6.17;;;3.97;;
15192;SDS011;7697;51.630;7.484;2023-04-25T02:23:31;5.20;;;3.53;;
15192;SDS011;7697;51.630;7.484;2023-04-25T02:28:32;6.27;;;3.23;;
15192;SDS011;7697;51.630;7.484;2023-04-25T02:33:34;6.07;;;4.07;;
15192;SDS011;7697;51.630;7.484;2023-04-25T02:38:38;7.43;;;4.10;;
15192;SDS011;7697;51.630;7.484;2023-04-25T02:43:39;5.60;;;3.53;;
15192;SDS011;7697;51.630;7.484;2023-04-25T02:48:41;6.63;;;4.00;;
15192;SDS011;7697;51.630;7.484;2023-04-25T02:53:45;7.37;;;4.40;;
15192;SDS011;7697;51.630;7.484;2023-04-25T02:58:46;6.37;;;3.70;;
15192;SDS011;7697;51.630;7.484;2023-04-25T03:03:48;7.87;;;4.13;;
15192;SDS011;7697;51.630;7.484;2023-04-25T03:08:51;5.47;;;3.70;;
15192;SDS011;7697;51.630;7.484;2023-04-25T03:13:53;8.60;;;4.93;;
15192;SDS011;7697;51.630;7.484;2023-04-25T03:18:55;8.00;;;4.40;;
15192;SDS011;7697;51.630;7.484;2023-04-25T03:23:58;6.87;;;4.13;;
15192;SDS011;7697;51.630;7.484;2023-04-25T03:29:00;7.73;;;4.50;;
15192;SDS011;7697;51.630;7.484;2023-04-25T03:34:02;7.57;;;4.20;;
15192;SDS011;7697;51.630;7.484;2023-04-25T03:39:05;7.13;;;4.20;;
15192;SDS011;7697;51.630;7.484;2023-04-25T03:44:08;8.27;;;4.07;;
15192;SDS011;7697;51.630;7.484;2023-04-25T03:49:09;4.53;;;3.60;;
15192;SDS011;7697;51.630;7.484;2023-04-25T03:54:13;8.87;;;4.30;;
15192;SDS011;7697;51.630;7.484;2023-04-25T03:59:15;7.13;;;4.00;;
15192;SDS011;7697;51.630;7.484;2023-04-25T04:04:16;7.17;;;4.33;;
15192;SDS011;7697;51.630;7.484;2023-04-25T04:09:19;7.27;;;4.30;;
15192;SDS011;7697;51.630;7.484;2023-04-25T04:14:21;9.60;;;4.93;;
15192;SDS011;7697;51.630;7.484;2023-04-25T04:19:23;7.27;;;4.37;;
15192;SDS011;7697;51.630;7.484;2023-04-25T04:24:26;6.10;;;4.10;;
15192;SDS011;7697;51.630;7.484;2023-04-25T04:29:28;8.03;;;4.40;;
15192;SDS011;7697;51.630;7.484;2023-04-25T04:34:31;5.87;;;3.63;;
15192;SDS011;7697;51.630;7.484;2023-04-25T04:39:35;7.27;;;3.50;;
15192;SDS011;7697;51.630;7.484;2023-04-25T04:44:37;5.10;;;3.30;;
15192;SDS011;7697;51.630;7.484;2023-04-25T04:49:40;5.03;;;2.87;;
15192;SDS011;7697;51.630;7.484;2023-04-25T04:54:44;7.20;;;3.37;;
15192;SDS011;7697;51.630;7.484;2023-04-25T04:59:46;4.90;;;2.80;;
15192;SDS011;7697;51.630;7.484;2023-04-25T05:04:48;5.97;;;2.57;;
15192;SDS011;7697;51.630;7.484;2023-04-25T05:09:52;4.97;;;2.87;;
15192;SDS011;7697;51.630;7.484;2023-04-25T05:14:54;7.20;;;2.60;;
15192;SDS011;7697;51.630;7.484;2023-04-25T05:19:56;6.57;;;2.63;;
15192;SDS011;7697;51.630;7.484;2023-04-25T05:24:59;7.67;;;2.67;;
15192;SDS011;7697;51.630;7.484;2023-04-25T05:30:04;4.30;;;1.93;;
15192;SDS011;7697;51.630;7.484;2023-04-25T05:35:07;6.70;;;2.53;;
15192;SDS011;7697;51.630;7.484;2023-04-25T05:40:11;4.17;;;2.23;;
15192;SDS011;7697;51.630;7.484;2023-04-25T05:45:12;5.63;;;2.47;;
15192;SDS011;7697;51.630;7.484;2023-04-25T05:50:15;6.07;;;2.50;;
15192;SDS011;7697;51.630;7.484;2023-04-25T05:55:18;5.80;;;2.57;;
15192;SDS011;7697;51.630;7.484;2023-04-25T06:00:20;4.37;;;2.27;;
15192;SDS011;7697;51.630;7.484;2023-04-25T06:05:22;9.13;;;2.63;;
15192;SDS011;7697;51.630;7.484;2023-04-25T06:10:26;7.57;;;3.03;;
15192;SDS011;7697;51.630;7.484;2023-04-25T06:15:28;9.13;;;3.60;;
15192;SDS011;7697;51.630;7.484;2023-04-25T06:20:30;9.97;;;3.57;;
15192;SDS011;7697;51.630;7.484;2023-04-25T06:25:33;6.40;;;2.83;;
15192;SDS011;7697;51.630;7.484;2023-04-25T06:30:35;11.57;;;3.67;;
15192;SDS011;7697;51.630;7.484;2023-04-25T06:35:36;9.57;;;3.53;;
15192;SDS011;7697;51.630;7.484;2023-04-25T06:40:40;8.33;;;3.80;;
15192;SDS011;7697;51.630;7.484;2023-04-25T06:45:41;7.60;;;3.00;;
15192;SDS011;7697;51.630;7.484;2023-04-25T06:50:43;6.10;;;2.77;;
15192;SDS011;7697;51.630;7.484;2023-04-25T06:55:46;5.87;;;2.70;;
15192;SDS011;7697;51.630;7.484;2023-04-25T07:00:48;9.53;;;3.30;;
15192;SDS011;7697;51.630;7.484;2023-04-25T07:05:50;10.53;;;3.00;;
15192;SDS011;7697;51.630;7.484;2023-04-25T07:10:53;8.70;;;3.37;;
15192;SDS011;7697;51.630;7.484;2023-04-25T07:15:55;8.52;;;3.55;;
15192;SDS011;7697;51.630;7.484;2023-04-25T07:20:57;7.27;;;3.00;;
15192;SDS011;7697;51.630;7.484;2023-04-25T07:26:00;9.07;;;3.37;;
15192;SDS011;7697;51.630;7.484;2023-04-25T07:31:02;10.05;;;3.30;;
15192;SDS011;7697;51.630;7.484;2023-04-25T07:36:05;7.13;;;3.28;;
15192;SDS011;7697;51.630;7.484;2023-04-25T07:41:09;11.45;;;3.10;;
15192;SDS011;7697;51.630;7.484;2023-04-25T07:46:11;7.60;;;3.40;;
15192;SDS011;7697;51.630;7.484;2023-04-25T07:51:12;8.07;;;2.80;;
15192;SDS011;7697;51.630;7.484;2023-04-25T07:56:16;8.07;;;3.05;;
15192;SDS011;7697;51.630;7.484;2023-04-25T08:01:18;9.43;;;3.67;;
15192;SDS011;7697;51.630;7.484;2023-04-25T08:06:21;8.90;;;3.28;;
15192;SDS011;7697;51.630;7.484;2023-04-25T08:11:25;10.18;;;2.85;;
15192;SDS011;7697;51.630;7.484;2023-04-25T08:16:26;8.13;;;2.58;;
15192;SDS011;7697;51.630;7.484;2023-04-25T08:21:28;7.05;;;2.88;;
15192;SDS011;7697;51.630;7.484;2023-04-25T08:26:32;7.35;;;2.80;;
15192;SDS011;7697;51.630;7.484;2023-04-25T08:31:34;5.60;;;2.50;;
15192;SDS011;7697;51.630;7.484;2023-04-25T08:36:36;9.48;;;2.85;;
15192;SDS011;7697;51.630;7.484;2023-04-25T08:41:39;5.85;;;2.35;;
15192;SDS011;7697;51.630;7.484;2023-04-25T08:46:42;6.38;;;2.20;;
15192;SDS011;7697;51.630;7.484;2023-04-25T08:51:49;5.70;;;2.20;;
15192;SDS011;7697;51.630;7.484;2023-04-25T08:56:55;4.97;;;2.05;;
15192;SDS011;7697;51.630;7.484;2023-04-25T09:01:58;6.13;;;2.20;;
15192;SDS011;7697;51.630;7.484;2023-04-25T09:07:01;8.52;;;2.38;;
15192;SDS011;7697;51.630;7.484;2023-04-25T09:12:04;3.55;;;1.77;;
15192;SDS011;7697;51.630;7.484;2023-04-25T09:17:06;4.53;;;2.08;;
15192;SDS011;7697;51.630;7.484;2023-04-25T09:22:08;6.43;;;1.92;;
15192;SDS011;7697;51.630;7.484;2023-04-25T09:27:13;5.93;;;2.17;;
15192;SDS011;7697;51.630;7.484;2023-04-25T09:32:21;8.20;;;2.10;;
15192;SDS011;7697;51.630;7.484;2023-04-25T09:37:25;8.77;;;2.20;;
15192;SDS011;7697;51.630;7.484;2023-04-25T09:42:29;5.38;;;2.22;;
15192;SDS011;7697;51.630;7.484;2023-04-25T09:47:31;3.17;;;1.67;;
15192;SDS011;7697;51.630;7.484;2023-04-25T09:52:38;4.40;;;1.90;;
15192;SDS011;7697;51.630;7.484;2023-04-25T09:57:42;6.00;;;2.10;;
15192;SDS011;7697;51.630;7.484;2023-04-25T10:02:47;5.03;;;1.98;;
15192;SDS011;7697;51.630;7.484;2023-04-25T10:07:51;5.30;;;1.90;;
15192;SDS011;7697;51.630;7.484;2023-04-25T10:12:55;7.63;;;2.38;;
15192;SDS011;7697;51.630;7.484;2023-04-25T10:17:57;3.22;;;1.48;;
15192;SDS011;7697;51.630;7.484;2023-04-25T10:23:03;4.68;;;1.45;;
15192;SDS011;7697;51.630;7.484;2023-04-25T10:28:14;5.30;;;1.88;;
15192;SDS011;7697;51.630;7.484;2023-04-25T10:33:16;4.68;;;1.70;;
15192;SDS011;7697;51.630;7.484;2023-04-25T10:38:18;4.72;;;1.77;;
15192;SDS011;7697;51.630;7.484;2023-04-25T10:43:34;2.75;;;1.42;;
15192;SDS011;7697;51.630;7.484;2023-04-25T10:48:37;4.60;;;1.55;;
15192;SDS011;7697;51.630;7.484;2023-04-25T10:53:46;4.47;;;1.80;;
15192;SDS011;7697;51.630;7.484;2023-04-25T10:58:50;3.72;;;1.75;;
15192;SDS011;7697;51.630;7.484;2023-04-25T11:03:56;4.78;;;1.80;;
15192;SDS011;7697;51.630;7.484;2023-04-25T11:09:00;4.53;;;1.75;;
15192;SDS011;7697;51.630;7.484;2023-04-25T11:14:04;5.47;;;1.92;;
15192;SDS011;7697;51.630;7.484;2023-04-25T11:19:06;3.50;;;1.88;;
15192;SDS011;7697;51.630;7.484;2023-04-25T11:24:08;1.77;;;1.20;;
15192;SDS011;7697;51.630;7.484;2023-04-25T11:29:13;2.80;;;1.30;;
15192;SDS011;7697;51.630;7.484;2023-04-25T11:34:16;2.72;;;1.20;;
15192;SDS011;7697;51.630;7.484;2023-04-25T11:39:18;4.68;;;1.25;;
15192;SDS011;7697;51.630;7.484;2023-04-25T11:44:22;2.00;;;1.10;;
15192;SDS011;7697;51.630;7.484;2023-04-25T11:49:24;2.35;;;1.20;;
15192;SDS011;7697;51.630;7.484;2023-04-25T11:54:31;2.60;;;1.15;;
15192;SDS011;7697;51.630;7.484;2023-04-25T11:59:38;1.92;;;1.20;;
15192;SDS011;7697;51.630;7.484;2023-04-25T12:04:40;3.60;;;1.17;;
15192;SDS011;7697;51.630;7.484;2023-04-25T12:09:42;2.55;;;1.23;;
15192;SDS011;7697;51.630;7.484;2023-04-25T12:14:45;3.03;;;1.40;;
15192;SDS011;7697;51.630;7.484;2023-04-25T12:19:48;2.80;;;1.10;;
15192;SDS011;7697;51.630;7.484;2023-04-25T12:24:50;2.10;;;1.25;;
15192;SDS011;7697;51.630;7.484;2023-04-25T12:29:55;3.17;;;1.10;;
15192;SDS011;7697;51.630;7.484;2023-04-25T12:34:57;2.78;;;1.20;;
15192;SDS011;7697;51.630;7.484;2023-04-25T12:39:59;2.22;;;1.10;;
15192;SDS011;7697;51.630;7.484;2023-04-25T12:45:02;2.83;;;1.35;;
15192;SDS011;7697;51.630;7.484;2023-04-25T12:50:05;3.13;;;1.50;;
15192;SDS011;7697;51.630;7.484;2023-04-25T12:55:07;2.63;;;1.33;;
15192;SDS011;7697;51.630;7.484;2023-04-25T13:00:11;2.72;;;1.20;;
15192;SDS011;7697;51.630;7.484;2023-04-25T13:05:18;3.88;;;1.42;;
15192;SDS011;7697;51.630;7.484;2023-04-25T13:10:19;2.03;;;1.20;;
15192;SDS011;7697;51.630;7.484;2023-04-25T13:15:23;3.70;;;1.30;;
15192;SDS011;7697;51.630;7.484;2023-04-25T13:20:24;1.90;;;1.20;;
15192;SDS011;7697;51.630;7.484;2023-04-25T13:25:26;1.85;;;1.08;;
15192;SDS011;7697;51.630;7.484;2023-04-25T13:30:29;3.63;;;1.60;;
15192;SDS011;7697;51.630;7.484;2023-04-25T13:35:31;4.05;;;1.20;;
15192;SDS011;7697;51.630;7.484;2023-04-25T13:40:34;1.20;;;0.90;;
15192;SDS011;7697;51.630;7.484;2023-04-25T13:45:38;1.13;;;0.82;;
15192;SDS011;7697;51.630;7.484;2023-04-25T13:50:40;1.30;;;0.70;;
15192;SDS011;7697;51.630;7.484;2023-04-25T13:55:42;1.65;;;0.80;;
15192;SDS011;7697;51.630;7.484;2023-04-25T14:00:46;1.60;;;0.68;;
15192;SDS011;7697;51.630;7.484;2023-04-25T14:05:48;2.55;;;1.00;;
15192;SDS011;7697;51.630;7.484;2023-04-25T14:10:49;1.20;;;1.00;;
15192;SDS011;7697;51.630;7.484;2023-04-25T14:15:53;2.67;;;1.05;;
15192;SDS011;7697;51.630;7.484;2023-04-25T14:20:54;1.83;;;1.10;;
15192;SDS011;7697;51.630;7.484;2023-04-25T14:25:56;2.33;;;1.25;;
15192;SDS011;7697;51.630;7.484;2023-04-25T14:30:59;3.47;;;1.30;;
15192;SDS011;7697;51.630;7.484;2023-04-25T14:36:01;2.72;;;1.48;;
15192;SDS011;7697;51.630;7.484;2023-04-25T14:41:03;2.65;;;1.40;;
15192;SDS011;7697;51.630;7.484;2023-04-25T14:46:07;1.60;;;1.00;;
15192;SDS011;7697;51.630;7.484;2023-04-25T14:51:09;3.10;;;1.55;;
15192;SDS011;7697;51.630;7.484;2023-04-25T14:56:11;3.45;;;1.25;;
15192;SDS011;7697;51.630;7.484;2023-04-25T15:01:14;2.00;;;1.02;;
15192;SDS011;7697;51.630;7.484;2023-04-25T15:06:16;2.25;;;1.15;;
15192;SDS011;7697;51.630;7.484;2023-04-25T15:11:18;1.60;;;1.00;;
15192;SDS011;7697;51.630;7.484;2023-04-25T15:16:23;1.80;;;1.25;;
15192;SDS011;7697;51.630;7.484;2023-04-25T15:21:25;1.63;;;0.93;;
15192;SDS011;7697;51.630;7.484;2023-04-25T15:26:27;3.30;;;1.40;;
15192;SDS011;7697;51.630;7.484;2023-04-25T15:31:31;2.20;;;1.30;;
15192;SDS011;7697;51.630;7.484;2023-04-25T15:36:33;2.58;;;1.50;;
15192;SDS011;7697;51.630;7.484;2023-04-25T15:41:35;3.72;;;1.88;;
15192;SDS011;7697;51.630;7.484;2023-04-25T15:46:38;6.18;;;1.92;;
15192;SDS011;7697;51.630;7.484;2023-04-25T15:51:40;2.28;;;1.25;;
15192;SDS011;7697;51.630;7.484;2023-04-25T15:56:42;1.83;;;1.20;;
15192;SDS011;7697;51.630;7.484;2023-04-25T16:01:46;2.13;;;1.30;;
15192;SDS011;7697;51.630;7.484;2023-04-25T16:06:48;2.45;;;1.10;;
15192;SDS011;7697;51.630;7.484;2023-04-25T16:11:50;2.65;;;1.92;;
15192;SDS011;7697;51.630;7.484;2023-04-25T16:16:53;3.10;;;2.20;;
15192;SDS011;7697;51.630;7.484;2023-04-25T16:21:55;11.10;;;7.20;;
15192;SDS011;7697;51.630;7.484;2023-04-25T16:26:58;5.85;;;4.50;;
15192;SDS011;7697;51.630;7.484;2023-04-25T16:32:02;3.55;;;2.75;;
15192;SDS011;7697;51.630;7.484;2023-04-25T16:37:04;5.93;;;3.63;;
15192;SDS011;7697;51.630;7.484;2023-04-25T16:42:06;4.95;;;2.88;;
15192;SDS011;7697;51.630;7.484;2023-04-25T16:47:09;3.15;;;1.50;;
15192;SDS011;7697;51.630;7.484;2023-04-25T16:52:11;2.50;;;1.30;;
15192;SDS011;7697;51.630;7.484;2023-04-25T16:57:15;3.08;;;1.70;;
15192;SDS011;7697;51.630;7.484;2023-04-25T17:02:18;2.42;;;1.50;;
15192;SDS011;7697;51.630;7.484;2023-04-25T17:07:20;3.45;;;1.40;;
15192;SDS011;7697;51.630;7.484;2023-04-25T17:12:23;2.42;;;1.58;;
15192;SDS011;7697;51.630;7.484;2023-04-25T17:17:26;2.75;;;1.35;;
15192;SDS011;7697;51.630;7.484;2023-04-25T17:22:28;2.95;;;1.30;;
15192;SDS011;7697;51.630;7.484;2023-04-25T17:27:30;2.63;;;1.30;;
15192;SDS011;7697;51.630;7.484;2023-04-25T17:32:34;3.92;;;1.52;;
15192;SDS011;7697;51.630;7.484;2023-04-25T17:37:35;4.32;;;1.45;;
15192;SDS011;7697;51.630;7.484;2023-04-25T17:42:37;2.05;;;1.20;;
15192;SDS011;7697;51.630;7.484;2023-04-25T17:47:41;3.58;;;1.60;;
15192;SDS011;7697;51.630;7.484;2023-04-25T17:52:43;3.33;;;1.45;;
15192;SDS011;7697;51.630;7.484;2023-04-25T17:57:47;4.05;;;1.80;;
15192;SDS011;7697;51.630;7.484;2023-04-25T18:02:50;2.53;;;1.42;;
15192;SDS011;7697;51.630;7.484;2023-04-25T18:07:52;2.17;;;1.40;;
15192;SDS011;7697;51.630;7.484;2023-04-25T18:12:53;2.78;;;1.35;;
15192;SDS011;7697;51.630;7.484;2023-04-25T18:17:57;4.72;;;1.45;;
15192;SDS011;7697;51.630;7.484;2023-04-25T18:23:01;2.05;;;1.40;;
15192;SDS011;7697;51.630;7.484;2023-04-25T18:28:03;4.00;;;1.85;;
15192;SDS011;7697;51.630;7.484;2023-04-25T18:33:07;3.53;;;2.08;;
15192;SDS011;7697;51.630;7.484;2023-04-25T18:38:10;3.38;;;1.65;;
15192;SDS011;7697;51.630;7.484;2023-04-25T18:43:11;4.05;;;1.52;;
15192;SDS011;7697;51.630;7.484;2023-04-25T18:48:15;3.20;;;1.50;;
15192;SDS011;7697;51.630;7.484;2023-04-25T18:53:16;2.97;;;1.70;;
15192;SDS011;7697;51.630;7.484;2023-04-25T18:58:18;4.10;;;1.60;;
15192;SDS011;7697;51.630;7.484;2023-04-25T19:03:21;3.55;;;1.58;;
15192;SDS011;7697;51.630;7.484;2023-04-25T19:08:23;3.03;;;1.45;;
15192;SDS011;7697;51.630;7.484;2023-04-25T19:13:25;4.13;;;1.63;;
15192;SDS011;7697;51.630;7.484;2023-04-25T19:18:29;2.60;;;1.60;;
15192;SDS011;7697;51.630;7.484;2023-04-25T19:23:31;2.42;;;1.50;;
15192;SDS011;7697;51.630;7.484;2023-04-25T19:28:32;3.97;;;3.10;;
15192;SDS011;7697;51.630;7.484;2023-04-25T19:33:36;2.47;;;1.75;;
15192;SDS011;7697;51.630;7.484;2023-04-25T19:38:37;4.60;;;1.90;;
15192;SDS011;7697;51.630;7.484;2023-04-25T19:43:39;2.47;;;1.25;;
15192;SDS011;7697;51.630;7.484;2023-04-25T19:48:42;2.05;;;1.40;;
15192;SDS011;7697;51.630;7.484;2023-04-25T19:53:45;4.15;;;1.40;;
15192;SDS011;7697;51.630;7.484;2023-04-25T19:58:47;2.45;;;1.42;;
15192;SDS011;7697;51.630;7.484;2023-04-25T20:03:51;3.85;;;1.58;;
15192;SDS011;7697;51.630;7.484;2023-04-25T20:08:52;2.58;;;1.52;;
15192;SDS011;7697;51.630;7.484;2023-04-25T20:13:54;1.73;;;1.40;;
15192;SDS011;7697;51.630;7.484;2023-04-25T20:18:58;2.83;;;1.50;;
15192;SDS011;7697;51.630;7.484;2023-04-25T20:24:00;2.42;;;1.38;;
15192;SDS011;7697;51.630;7.484;2023-04-25T20:29:02;2.13;;;1.20;;
15192;SDS011;7697;51.630;7.484;2023-04-25T20:34:06;4.20;;;1.27;;
15192;SDS011;7697;51.630;7.484;2023-04-25T20:39:08;2.92;;;1.40;;
15192;SDS011;7697;51.630;7.484;2023-04-25T20:44:10;1.83;;;1.15;;
15192;SDS011;7697;51.630;7.484;2023-04-25T20:49:14;1.70;;;1.08;;
15192;SDS011;7697;51.630;7.484;2023-04-25T20:54:16;1.75;;;1.23;;
15192;SDS011;7697;51.630;7.484;2023-04-25T20:59:17;3.47;;;1.48;;
15192;SDS011;7697;51.630;7.484;2023-04-25T21:04:22;2.28;;;1.10;;
15192;SDS011;7697;51.630;7.484;2023-04-25T21:09:23;1.80;;;1.40;;
15192;SDS011;7697;51.630;7.484;2023-04-25T21:14:25;2.42;;;1.27;;
15192;SDS011;7697;51.630;7.484;2023-04-25T21:19:29;1.70;;;1.40;;
15192;SDS011;7697;51.630;7.484;2023-04-25T21:24:31;1.87;;;1.50;;
15192;SDS011;7697;51.630;7.484;2023-04-25T21:29:33;2.17;;;1.60;;
15192;SDS011;7697;51.630;7.484;2023-04-25T21:34:36;2.13;;;1.30;;
15192;SDS011;7697;51.630;7.484;2023-04-25T21:39:38;3.07;;;1.50;;
15192;SDS011;7697;51.630;7.484;2023-04-25T21:44:40;3.33;;;1.73;;
15192;SDS011;7697;51.630;7.484;2023-04-25T21:49:43;2.23;;;1.50;;
15192;SDS011;7697;51.630;7.484;2023-04-25T21:54:45;4.63;;;1.50;;
15192;SDS011;7697;51.630;7.484;2023-04-25T21:59:47;2.30;;;1.27;;
15192;SDS011;7697;51.630;7.484;2023-04-25T22:04:50;1.93;;;1.43;;
15192;SDS011;7697;51.630;7.484;2023-04-25T22:09:52;1.40;;;1.30;;
15192;SDS011;7697;51.630;7.484;2023-04-25T22:14:54;2.40;;;1.40;;
15192;SDS011;7697;51.630;7.484;2023-04-25T22:19:58;4.33;;;1.70;;
15192;SDS011;7697;51.630;7.484;2023-04-25T22:25:01;2.90;;;1.50;;
15192;SDS011;7697;51.630;7.484;2023-04-25T22:30:03;2.37;;;1.47;;
15192;SDS011;7697;51.630;7.484;2023-04-25T22:35:07;3.17;;;1.77;;
15192;SDS011;7697;51.630;7.484;2023-04-25T22:40:10;2.33;;;1.57;;
15192;SDS011;7697;51.630;7.484;2023-04-25T22:45:12;2.43;;;1.43;;
15192;SDS011;7697;51.630;7.484;2023-04-25T22:50:16;3.80;;;1.83;;
15192;SDS011;7697;51.630;7.484;2023-04-25T22:55:18;3.07;;;1.43;;
15192;SDS011;7697;51.630;7.484;2023-04-25T23:00:21;2.43;;;1.80;;
15192;SDS011;7697;51.630;7.484;2023-04-25T23:05:26;1.97;;;1.40;;
15192;SDS011;7697;51.630;7.484;2023-04-25T23:10:29;2.40;;;1.67;;
15192;SDS011;7697;51.630;7.484;2023-04-25T23:15:31;2.23;;;1.50;;
15192;SDS011;7697;51.630;7.484;2023-04-25T23:20:35;2.63;;;1.80;;
15192;SDS011;7697;51.630;7.484;2023-04-25T23:25:37;3.33;;;1.80;;
15192;SDS011;7697;51.630;7.484;2023-04-25T23:30:40;3.73;;;1.80;;
15192;SDS011;7697;51.630;7.484;2023-04-25T23:35:43;3.20;;;2.00;;
15192;SDS011;7697;51.630;7.484;2023-04-25T23:40:45;2.70;;;1.60;;
15192;SDS011;7697;51.630;7.484;2023-04-25T23:45:47;2.53;;;1.50;;
15192;SDS011;7697;51.630;7.484;2023-04-25T23:50:50;2.13;;;1.33;;
15192;SDS011;7697;51.630;7.484;2023-04-25T23:55:52;3.43;;;1.90;;
